createdAt,value
2022-08-09T00:01:27.864Z,70.13
2022-08-09T00:04:33.798Z,69.92
2022-08-09T00:07:02.219Z,70.15
2022-08-09T00:09:29.572Z,70.60
2022-08-09T00:12:04.085Z,70.71
2022-08-09T00:14:37.844Z,72.12
2022-08-09T00:17:06.126Z,71.58
2022-08-09T00:19:34.082Z,72.76
2022-08-09T00:22:03.592Z,72.64
2022-08-09T00:24:32.037Z,72.79
2022-08-09T00:27:00.884Z,73.19
2022-08-09T00:30:09.879Z,73.36
2022-08-09T00:32:27.057Z,75.13
2022-08-09T00:34:54.896Z,74.30
2022-08-09T00:37:21.856Z,74.62
2022-08-09T00:40:12.753Z,74.30
2022-08-09T00:44:13.222Z,75.58
2022-08-09T00:45:24.583Z,75.73
2022-08-09T00:47:52.488Z,75.65
2022-08-09T00:50:23.539Z,75.36
2022-08-09T00:52:50.822Z,75.70
2022-08-09T00:56:03.052Z,75.43
2022-08-09T00:58:05.962Z,75.72
2022-08-09T01:00:40.784Z,76.71
2022-08-09T01:03:40.676Z,76.65
2022-08-09T01:06:25.603Z,76.79
2022-08-09T01:09:46.885Z,77.03
2022-08-09T01:12:55.799Z,77.38
2022-08-09T01:15:29.402Z,78.38
2022-08-09T01:18:05.286Z,78.72
2022-08-09T01:21:10.216Z,79.35
2022-08-09T01:24:02.478Z,79.51
2022-08-09T01:26:54.066Z,80.07
2022-08-09T01:29:55.977Z,79.33
2022-08-09T01:32:46.059Z,79.63
2022-08-09T01:35:37.384Z,79.42
2022-08-09T01:38:15.395Z,79.90
2022-08-09T01:41:05.208Z,82.29
2022-08-09T01:43:50.354Z,81.89
2022-08-09T01:46:28.462Z,82.15
2022-08-09T01:49:10.566Z,81.59
2022-08-09T01:51:44.275Z,83.29
2022-08-09T01:54:14.179Z,82.75
2022-08-09T01:56:47.118Z,82.19
2022-08-09T01:59:21.305Z,82.53
2022-08-09T02:01:59.669Z,83.17
2022-08-09T02:04:30.050Z,83.24
2022-08-09T02:07:08.722Z,84.63
2022-08-09T02:10:03.804Z,85.58
2022-08-09T02:12:35.118Z,83.91
2022-08-09T02:15:06.359Z,85.35
2022-08-09T02:18:01.066Z,84.82
2022-08-09T02:20:32.756Z,86.53
2022-08-09T02:23:17.278Z,85.71
2022-08-09T02:25:52.744Z,85.64
2022-08-09T02:28:36.135Z,85.99
2022-08-09T02:31:08.247Z,85.68
2022-08-09T02:34:06.543Z,86.42
2022-08-09T02:36:39.886Z,86.52
2022-08-09T02:39:19.992Z,87.74
2022-08-09T02:42:16.722Z,86.29
2022-08-09T02:44:55.670Z,86.34
2022-08-09T02:47:24.350Z,87.69
2022-08-09T02:50:01.813Z,87.86
2022-08-09T02:52:37.962Z,87.80
2022-08-09T02:55:20.795Z,86.90
2022-08-09T02:58:00.269Z,88.11
2022-08-09T03:00:58.208Z,88.65
2022-08-09T03:03:37.214Z,90.42
2022-08-09T03:06:15.057Z,89.66
2022-08-09T03:08:47.514Z,89.09
2022-08-09T03:12:04.217Z,89.32
2022-08-09T03:14:10.634Z,89.51
2022-08-09T03:16:44.729Z,89.17
2022-08-09T03:19:52.370Z,89.79
2022-08-09T03:22:06.101Z,91.46
2022-08-09T03:24:52.414Z,91.17
2022-08-09T03:27:22.264Z,92.45
2022-08-09T03:29:57.579Z,91.49
2022-08-09T03:32:30.762Z,90.98
2022-08-09T03:34:59.286Z,92.25
2022-08-09T03:37:54.681Z,92.76
2022-08-09T03:40:18.200Z,92.20
2022-08-09T03:42:46.806Z,92.33
2022-08-09T03:45:15.576Z,92.05
2022-08-09T03:47:46.499Z,93.96
2022-08-09T03:50:14.626Z,92.10
2022-08-09T03:52:58.315Z,92.67
2022-08-09T03:55:26.662Z,93.50
2022-08-09T03:58:06.376Z,94.19
2022-08-09T04:00:39.063Z,95.46
2022-08-09T04:03:06.975Z,95.57
2022-08-09T04:05:33.868Z,94.01
2022-08-09T04:08:07.437Z,93.46
2022-08-09T04:10:35.791Z,93.42
2022-08-09T04:13:09.438Z,93.26
2022-08-09T04:16:17.733Z,94.96
2022-08-09T04:18:26.126Z,96.28
2022-08-09T04:20:55.427Z,95.82
2022-08-09T04:23:24.934Z,96.11
2022-08-09T04:25:54.712Z,94.88
2022-08-09T04:28:33.873Z,95.10
2022-08-09T04:31:08.406Z,96.12
2022-08-09T04:33:52.037Z,93.97
2022-08-09T04:36:23.286Z,93.15
2022-08-09T04:38:50.312Z,93.35
2022-08-09T04:41:17.203Z,94.47
2022-08-09T04:43:53.860Z,94.15
2022-08-09T04:46:37.946Z,94.67
2022-08-09T04:49:30.127Z,95.59
2022-08-09T04:52:07.501Z,95.52
2022-08-09T04:54:36.602Z,95.24
2022-08-09T04:57:03.915Z,95.73
2022-08-09T04:59:31.604Z,94.48
2022-08-09T05:01:58.933Z,94.96
2022-08-09T05:04:30.635Z,94.03
2022-08-09T05:06:58.732Z,93.22
2022-08-09T05:09:41.880Z,92.58
2022-08-09T05:12:11.121Z,91.82
2022-08-09T05:14:41.187Z,91.42
2022-08-09T05:17:15.408Z,91.56
2022-08-09T05:19:56.619Z,92.87
2022-08-09T05:22:33.141Z,92.52
2022-08-09T05:25:04.807Z,92.44
2022-08-09T05:27:31.681Z,92.93
2022-08-09T05:29:59.067Z,92.21
2022-08-09T05:32:30.026Z,93.25
2022-08-09T05:34:57.081Z,92.35
2022-08-09T05:37:25.174Z,91.38
2022-08-09T05:39:52.396Z,91.12
2022-08-09T05:42:21.861Z,90.95
2022-08-09T05:44:55.865Z,92.36
2022-08-09T05:47:25.307Z,92.14
2022-08-09T05:50:34.947Z,90.25
2022-08-09T05:52:44.397Z,88.60
2022-08-09T05:55:21.232Z,89.13
2022-08-09T05:57:57.587Z,89.50
2022-08-09T06:00:28.737Z,88.55
2022-08-09T06:02:57.903Z,87.20
2022-08-09T06:05:31.108Z,87.90
2022-08-09T06:08:19.344Z,88.44
2022-08-09T06:10:52.166Z,87.52
2022-08-09T06:13:20.708Z,88.10
2022-08-09T06:15:52.939Z,87.47
2022-08-09T06:18:25.198Z,87.96
2022-08-09T06:20:58.443Z,87.93
2022-08-09T06:23:55.185Z,87.06
2022-08-09T06:26:22.289Z,86.98
2022-08-09T06:29:00.022Z,86.93
2022-08-09T06:31:31.488Z,86.30
2022-08-09T06:34:06.877Z,85.69
2022-08-09T06:36:34.325Z,85.14
2022-08-09T06:39:02.749Z,85.82
2022-08-09T06:42:07.688Z,85.64
2022-08-09T06:44:23.010Z,85.07
2022-08-09T06:46:54.961Z,84.80
2022-08-09T06:49:44.429Z,85.26
2022-08-09T06:52:12.129Z,84.06
2022-08-09T06:54:42.725Z,83.87
2022-08-09T06:57:11.922Z,85.23
2022-08-09T07:00:50.247Z,83.60
2022-08-09T07:02:31.012Z,85.81
2022-08-09T07:05:00.271Z,82.18
2022-08-09T07:07:58.664Z,82.06
2022-08-09T07:10:24.402Z,81.81
2022-08-09T07:12:57.133Z,80.84
2022-08-09T07:16:34.852Z,82.82
2022-08-09T07:18:11.729Z,80.51
2022-08-09T07:20:43.331Z,78.51
2022-08-09T07:23:18.328Z,79.03
2022-08-09T07:25:48.374Z,79.11
2022-08-09T07:28:28.058Z,79.87
2022-08-09T07:30:55.675Z,78.59
2022-08-09T07:33:23.295Z,78.06
2022-08-09T07:35:54.057Z,79.71
2022-08-09T07:38:23.493Z,79.22
2022-08-09T07:41:00.846Z,78.52
2022-08-09T07:43:41.387Z,76.73
2022-08-09T07:46:19.149Z,75.48
2022-08-09T07:48:59.648Z,75.96
2022-08-09T07:52:03.170Z,75.64
2022-08-09T07:54:14.986Z,74.95
2022-08-09T07:56:48.915Z,74.60
2022-08-09T07:59:33.798Z,74.41
2022-08-09T08:02:05.875Z,74.01
2022-08-09T08:04:33.129Z,73.29
2022-08-09T08:07:15.598Z,72.58
2022-08-09T08:10:05.853Z,71.53
2022-08-09T08:12:43.530Z,70.81
2022-08-09T08:15:14.124Z,68.88
2022-08-09T08:17:54.636Z,68.05
2022-08-09T08:20:32.329Z,67.02
2022-08-09T08:23:16.983Z,66.68
2022-08-09T08:25:48.432Z,66.26
2022-08-09T08:28:26.107Z,65.56
2022-08-09T08:31:02.476Z,64.81
2022-08-09T08:33:52.218Z,64.79
2022-08-09T08:36:28.417Z,64.05
2022-08-09T08:38:56.758Z,63.79
2022-08-09T08:41:41.893Z,63.25
2022-08-09T08:44:14.392Z,62.51
2022-08-09T08:47:02.139Z,61.25
2022-08-09T08:49:46.450Z,60.98
2022-08-09T08:52:48.474Z,60.46
2022-08-09T08:55:04.002Z,59.91
2022-08-09T08:57:34.671Z,58.99
2022-08-09T09:00:13.079Z,58.68
2022-08-09T09:02:52.878Z,57.97
2022-08-09T09:05:33.036Z,57.18
2022-08-09T09:08:30.157Z,56.98
2022-08-09T09:11:02.476Z,56.48
2022-08-09T09:13:41.572Z,55.32
2022-08-09T09:16:29.944Z,56.14
2022-08-09T09:19:36.774Z,56.45
2022-08-09T09:22:04.935Z,56.02
2022-08-09T09:24:43.688Z,53.06
2022-08-09T09:28:06.519Z,52.50
2022-08-09T09:30:27.380Z,53.50
2022-08-09T09:33:15.549Z,53.31
2022-08-09T09:36:02.410Z,51.00
2022-08-09T09:38:47.891Z,48.05
2022-08-09T09:41:24.028Z,48.15
2022-08-09T09:44:11.398Z,47.67
2022-08-09T09:46:45.907Z,46.76
2022-08-09T09:49:49.811Z,46.70
2022-08-09T09:52:16.436Z,45.07
2022-08-09T09:55:27.818Z,45.39
2022-08-09T09:58:18.669Z,45.32
2022-08-09T10:00:58.799Z,44.60
2022-08-09T10:03:57.777Z,45.50
2022-08-09T10:06:42.798Z,45.59
2022-08-09T10:09:22.639Z,45.74
2022-08-09T10:12:11.691Z,42.98
2022-08-09T10:14:43.921Z,43.45
2022-08-09T10:17:50.609Z,42.49
2022-08-09T10:20:27.448Z,41.46
2022-08-09T10:23:20.478Z,40.76
2022-08-09T10:26:04.934Z,41.73
2022-08-09T10:28:37.440Z,40.82
2022-08-09T10:34:10.506Z,40.26
2022-08-09T10:36:42.933Z,40.02
2022-08-09T10:39:15.423Z,39.68
2022-08-09T10:41:46.209Z,40.37
2022-08-09T10:44:19.391Z,39.56
2022-08-09T10:48:12.501Z,39.44
2022-08-09T10:50:31.303Z,39.15
2022-08-09T10:53:21.175Z,38.89
2022-08-09T10:55:55.356Z,38.69
2022-08-09T10:58:34.697Z,37.80
2022-08-09T11:03:02.915Z,38.09
2022-08-09T11:04:20.037Z,37.23
2022-08-09T11:06:58.076Z,36.63
2022-08-09T11:09:41.213Z,36.81
2022-08-09T11:12:15.072Z,35.44
2022-08-09T11:14:57.385Z,34.86
2022-08-09T11:17:27.276Z,35.28
2022-08-09T11:20:20.011Z,34.68
2022-08-09T11:22:57.038Z,32.45
2022-08-09T11:25:45.235Z,28.28
2022-08-09T11:28:54.439Z,23.74
2022-08-09T11:31:49.580Z,21.67
2022-08-09T11:34:24.914Z,21.12
2022-08-09T11:36:52.967Z,19.38
2022-08-09T11:39:20.043Z,18.02
2022-08-09T11:41:47.024Z,17.64
2022-08-09T11:44:15.764Z,18.32
2022-08-09T11:46:57.980Z,17.79
2022-08-09T11:50:53.894Z,17.99
2022-08-09T11:53:28.186Z,16.80
2022-08-09T11:55:52.261Z,15.56
2022-08-09T11:58:30.453Z,16.01
2022-08-09T12:01:09.057Z,16.21
2022-08-09T12:04:01.502Z,16.13
2022-08-09T12:06:32.010Z,15.91
2022-08-09T12:09:03.688Z,18.21
2022-08-09T12:11:44.503Z,19.08
2022-08-09T12:14:36.523Z,20.49
2022-08-09T12:17:33.807Z,21.50
2022-08-09T12:19:59.498Z,22.16
2022-08-09T12:22:27.949Z,23.08
2022-08-09T12:25:36.568Z,23.41
2022-08-09T12:29:11.408Z,23.55
2022-08-09T12:31:31.180Z,23.96
2022-08-09T12:34:13.890Z,25.14
2022-08-09T12:36:58.666Z,24.69
2022-08-09T12:39:37.802Z,24.54
2022-08-09T12:42:11.230Z,25.34
2022-08-09T12:44:46.282Z,25.75
2022-08-09T12:47:22.884Z,26.36
2022-08-09T12:50:09.566Z,26.22
2022-08-09T12:52:58.322Z,26.27
2022-08-09T12:56:14.242Z,27.04
2022-08-09T12:58:24.163Z,26.81
2022-08-09T13:00:54.522Z,27.22
2022-08-09T13:03:58.429Z,27.55
2022-08-09T13:06:34.274Z,27.74
2022-08-09T13:09:15.983Z,28.59
2022-08-09T13:11:46.940Z,28.11
2022-08-09T13:14:40.698Z,28.30
2022-08-09T13:17:16.184Z,28.31
2022-08-09T13:20:08.901Z,27.79
2022-08-09T13:23:05.297Z,28.59
2022-08-09T13:25:54.379Z,29.15
2022-08-09T13:28:34.506Z,28.35
2022-08-09T13:32:15.195Z,28.67
2022-08-09T13:33:58.699Z,30.17
2022-08-09T13:36:42.236Z,28.48
2022-08-09T13:41:50.376Z,28.57
2022-08-09T13:42:03.301Z,29.08
2022-08-09T13:44:31.170Z,28.89
2022-08-09T13:47:29.011Z,29.07
2022-08-09T13:49:56.386Z,29.16
2022-08-09T13:52:29.409Z,28.88
2022-08-09T13:54:59.936Z,28.35
2022-08-09T13:57:39.917Z,29.23
2022-08-09T14:00:18.726Z,28.25
2022-08-09T14:03:03.977Z,28.47
2022-08-09T14:05:57.355Z,29.38
2022-08-09T14:08:24.247Z,28.91
2022-08-09T14:10:54.129Z,28.76
2022-08-09T14:14:16.368Z,29.82
2022-08-09T14:16:14.116Z,29.42
2022-08-09T14:18:43.313Z,29.63
2022-08-09T14:21:17.786Z,29.10
2022-08-09T14:23:54.933Z,28.76
2022-08-09T14:26:32.127Z,28.84
2022-08-09T14:29:07.546Z,28.36
2022-08-09T14:31:52.073Z,27.70
2022-08-09T14:34:27.299Z,28.44
2022-08-09T14:37:09.308Z,28.03
2022-08-09T14:39:45.134Z,28.97
2022-08-09T14:42:13.386Z,28.61
2022-08-09T14:46:57.306Z,29.25
2022-08-09T14:47:56.978Z,28.68
2022-08-09T14:50:24.707Z,27.95
2022-08-09T14:52:51.543Z,27.96
2022-08-09T14:55:20.476Z,27.81
2022-08-09T14:57:49.135Z,28.33
2022-08-09T15:00:17.160Z,28.91
2022-08-09T15:02:47.791Z,28.73
2022-08-09T15:05:19.251Z,28.52
2022-08-09T15:07:56.233Z,28.31
2022-08-09T15:10:25.533Z,28.12
2022-08-09T15:12:54.178Z,27.86
2022-08-09T15:15:22.117Z,28.40
2022-08-09T15:17:52.571Z,28.71
2022-08-09T15:21:53.674Z,28.39
2022-08-09T15:24:01.448Z,28.30
2022-08-09T15:26:02.612Z,28.45
2022-08-09T15:28:33.557Z,29.35
2022-08-09T15:31:13.193Z,28.20
2022-08-09T15:34:18.281Z,28.41
2022-08-09T15:36:33.854Z,28.08
2022-08-09T15:39:01.645Z,28.42
2022-08-09T15:41:32.237Z,28.39
2022-08-09T15:44:03.796Z,29.26
2022-08-09T15:46:34.130Z,28.00
2022-08-09T15:49:21.722Z,28.96
2022-08-09T15:52:04.461Z,28.90
2022-08-09T15:54:44.889Z,28.44
2022-08-09T15:57:35.733Z,28.17
2022-08-09T16:00:15.226Z,27.20
2022-08-09T16:02:53.999Z,28.92
2022-08-09T16:05:24.277Z,28.42
2022-08-09T16:07:51.334Z,28.62
2022-08-09T16:10:38.796Z,28.35
2022-08-09T16:13:20.865Z,28.64
2022-08-09T16:16:09.803Z,28.67
2022-08-09T16:18:44.718Z,27.92
2022-08-09T16:21:17.524Z,28.26
2022-08-09T16:23:58.554Z,27.78
2022-08-09T16:26:35.664Z,27.82
2022-08-09T16:29:11.698Z,28.43
2022-08-09T16:32:17.720Z,27.93
2022-08-09T16:34:55.352Z,28.18
2022-08-09T16:37:20.365Z,27.37
2022-08-09T16:40:09.958Z,27.51
2022-08-09T16:42:37.951Z,27.33
2022-08-09T16:45:06.979Z,28.68
2022-08-09T16:48:38.847Z,27.75
2022-08-09T16:50:31.111Z,28.02
2022-08-09T16:53:01.856Z,27.73
2022-08-09T16:55:44.290Z,27.81
2022-08-09T16:58:17.121Z,27.36
2022-08-09T17:00:46.323Z,27.81
2022-08-09T17:03:22.015Z,27.98
2022-08-09T17:06:08.550Z,28.14
2022-08-09T17:08:58.864Z,28.02
2022-08-09T17:11:39.934Z,28.42
2022-08-09T17:14:26.738Z,28.20
2022-08-09T17:16:59.906Z,28.44
2022-08-09T17:19:46.786Z,28.52
2022-08-09T17:22:14.801Z,27.92
2022-08-09T17:24:47.851Z,28.90
2022-08-09T17:27:22.962Z,29.28
2022-08-09T17:29:51.176Z,28.45
2022-08-09T17:32:20.044Z,28.94
2022-08-09T17:35:07.406Z,28.50
2022-08-09T17:38:14.613Z,28.73
2022-08-09T17:40:25.979Z,29.65
2022-08-09T17:42:59.782Z,28.31
2022-08-09T17:46:04.389Z,29.85
2022-08-09T17:48:29.471Z,29.12
2022-08-09T17:51:08.758Z,28.62
2022-08-09T17:53:51.423Z,29.40
2022-08-09T17:56:27.633Z,28.47
2022-08-09T17:58:57.844Z,29.37
2022-08-09T18:01:25.049Z,28.74
2022-08-09T18:03:54.695Z,29.44
2022-08-09T18:06:31.670Z,29.44
2022-08-09T18:09:05.567Z,29.78
2022-08-09T18:12:05.626Z,29.71
2022-08-09T18:14:22.909Z,29.66
2022-08-09T18:16:50.791Z,29.02
2022-08-09T18:20:59.057Z,29.03
2022-08-09T18:22:13.229Z,29.26
2022-08-09T18:24:44.295Z,28.97
2022-08-09T18:27:33.670Z,29.66
2022-08-09T18:30:35.737Z,29.83
2022-08-09T18:32:54.126Z,29.63
2022-08-09T18:35:48.060Z,29.78
2022-08-09T18:38:09.738Z,29.80
2022-08-09T18:40:38.797Z,30.16
2022-08-09T18:43:05.624Z,29.77
2022-08-09T18:46:48.423Z,30.15
2022-08-09T18:48:19.242Z,30.27
2022-08-09T18:50:47.301Z,30.17
2022-08-09T18:53:16.540Z,30.47
2022-08-09T18:55:56.614Z,30.65
2022-08-09T18:58:32.502Z,30.49
2022-08-09T19:01:00.647Z,30.63
2022-08-09T19:03:28.813Z,30.93
2022-08-09T19:06:04.241Z,31.88
2022-08-09T19:08:32.704Z,32.71
2022-08-09T19:10:59.754Z,32.49
2022-08-09T19:13:49.860Z,32.98
2022-08-09T19:16:13.445Z,32.72
2022-08-09T19:18:48.581Z,32.80
2022-08-09T19:21:16.572Z,33.70
2022-08-09T19:24:33.050Z,34.27
2022-08-09T19:26:35.669Z,34.56
2022-08-09T19:29:09.768Z,35.23
2022-08-09T19:31:45.643Z,35.41
2022-08-09T19:34:22.226Z,36.43
2022-08-09T19:36:54.858Z,36.19
2022-08-09T19:39:42.992Z,36.65
2022-08-09T19:42:14.942Z,36.88
2022-08-09T19:44:50.701Z,36.88
2022-08-09T19:47:22.723Z,36.93
2022-08-09T19:50:08.985Z,37.25
2022-08-09T19:52:49.787Z,37.54
2022-08-09T19:55:25.580Z,37.08
2022-08-09T19:57:57.804Z,37.14
2022-08-09T20:00:24.660Z,36.91
2022-08-09T20:04:17.045Z,37.10
2022-08-09T20:05:41.372Z,37.89
2022-08-09T20:08:16.136Z,37.79
2022-08-09T20:10:52.295Z,38.17
2022-08-09T20:13:21.169Z,38.19
2022-08-09T20:16:32.766Z,38.65
2022-08-09T20:18:35.589Z,38.97
2022-08-09T20:21:03.220Z,39.28
2022-08-09T20:23:38.850Z,39.47
2022-08-09T20:26:07.808Z,39.51
2022-08-09T20:28:48.375Z,39.90
2022-08-09T20:31:16.904Z,40.33
2022-08-09T20:33:44.638Z,40.78
2022-08-09T20:36:12.682Z,41.00
2022-08-09T20:41:35.589Z,41.20
2022-08-09T20:44:10.375Z,41.53
2022-08-09T20:46:43.346Z,42.03
2022-08-09T20:49:13.582Z,42.93
2022-08-09T20:51:42.135Z,43.51
2022-08-09T20:54:16.720Z,43.28
2022-08-09T20:56:49.699Z,43.29
2022-08-09T20:59:50.240Z,43.32
2022-08-09T21:02:10.445Z,43.96
2022-08-09T21:05:53.402Z,44.15
2022-08-09T21:07:38.787Z,45.07
2022-08-09T21:10:11.820Z,44.57
2022-08-09T21:12:39.035Z,44.95
2022-08-09T21:15:10.799Z,45.45
2022-08-09T21:18:20.878Z,45.48
2022-08-09T21:20:30.253Z,45.89
2022-08-09T21:22:59.319Z,46.23
2022-08-09T21:25:56.298Z,47.01
2022-08-09T21:28:34.267Z,47.06
2022-08-09T21:31:16.131Z,46.66
2022-08-09T21:33:52.680Z,47.28
2022-08-09T21:36:23.454Z,47.51
2022-08-09T21:38:57.523Z,47.80
2022-08-09T21:42:04.588Z,47.96
2022-08-09T21:44:34.272Z,48.68
2022-08-09T21:47:07.892Z,49.01
2022-08-09T21:49:43.329Z,49.55
2022-08-09T21:52:17.751Z,50.09
2022-08-09T21:55:02.788Z,50.78
2022-08-09T21:57:38.788Z,51.76
2022-08-09T22:00:25.217Z,52.63
2022-08-09T22:02:58.717Z,53.37
2022-08-09T22:05:37.024Z,53.93
2022-08-09T22:08:12.827Z,54.43
2022-08-09T22:11:00.736Z,54.59
2022-08-09T22:13:31.392Z,55.03
2022-08-09T22:16:07.754Z,55.26
2022-08-09T22:18:52.120Z,56.02
2022-08-09T22:21:45.326Z,56.74
2022-08-09T22:24:21.013Z,57.17
2022-08-09T22:26:52.452Z,57.32
2022-08-09T22:29:28.864Z,57.73
2022-08-09T22:32:06.296Z,57.93
2022-08-09T22:34:59.082Z,57.86
2022-08-09T22:37:31.404Z,58.61
2022-08-09T22:40:09.538Z,59.63
2022-08-09T22:42:37.768Z,59.86
2022-08-09T22:48:13.802Z,59.52
2022-08-09T22:48:14.403Z,59.68
2022-08-09T22:50:40.167Z,60.76
2022-08-09T22:53:07.039Z,60.05
2022-08-09T22:56:06.428Z,60.24
2022-08-09T22:58:32.268Z,60.47
2022-08-09T23:01:05.616Z,60.60
2022-08-09T23:04:04.111Z,60.44
2022-08-09T23:06:35.025Z,60.25
2022-08-09T23:09:07.177Z,60.40
2022-08-09T23:11:34.321Z,61.44
2022-08-09T23:14:02.803Z,60.79
2022-08-09T23:16:29.622Z,60.89
2022-08-09T23:18:56.456Z,60.94
2022-08-09T23:21:25.260Z,60.47
2022-08-09T23:24:05.276Z,61.22
2022-08-09T23:26:38.513Z,61.82
2022-08-09T23:29:07.715Z,61.96
2022-08-09T23:31:34.574Z,62.10
2022-08-09T23:34:03.687Z,62.39
2022-08-09T23:36:31.349Z,62.56
2022-08-09T23:38:58.169Z,62.31
2022-08-09T23:41:28.719Z,62.15
2022-08-09T23:44:01.424Z,61.75
2022-08-09T23:46:30.059Z,62.03
2022-08-09T23:48:58.172Z,62.86
2022-08-09T23:51:25.671Z,62.71
2022-08-09T23:53:55.181Z,63.06
2022-08-09T23:56:53.766Z,62.71
2022-08-09T23:59:16.553Z,63.51
